createdAt,value
2018-07-14T00:00:44.181Z,27.67
2018-07-14T00:10:51.550Z,27.39
2018-07-14T00:20:57.074Z,27.36
2018-07-14T00:31:05.297Z,27.22
2018-07-14T00:41:10.934Z,27.16
2018-07-14T00:51:13.938Z,27.60
2018-07-14T01:01:16.983Z,27.26
2018-07-14T01:11:21.214Z,27.26
2018-07-14T01:21:25.946Z,27.53
2018-07-14T01:31:29.061Z,27.28
2018-07-14T01:41:33.447Z,26.75
2018-07-14T01:51:38.463Z,27.05
2018-07-14T02:01:43.116Z,26.78
2018-07-14T02:11:48.041Z,26.77
2018-07-14T02:21:52.284Z,26.51
2018-07-14T02:31:58.191Z,26.66
2018-07-14T02:42:04.162Z,26.56
2018-07-14T02:52:14.488Z,26.50
2018-07-14T03:02:18.229Z,26.60
2018-07-14T03:12:24.449Z,26.61
2018-07-14T03:22:36.042Z,26.82
2018-07-14T03:32:39.077Z,26.35
2018-07-14T03:42:43.126Z,26.54
2018-07-14T03:52:47.204Z,26.56
2018-07-14T04:02:58.209Z,26.44
2018-07-14T04:13:03.144Z,26.38
2018-07-14T04:23:07.286Z,26.15
2018-07-14T04:33:12.193Z,26.37
2018-07-14T04:43:16.675Z,26.45
2018-07-14T04:53:21.192Z,26.63
2018-07-14T05:03:25.718Z,26.82
2018-07-14T05:13:30.280Z,26.91
2018-07-14T05:23:34.277Z,26.79
2018-07-14T05:33:38.429Z,27.28
2018-07-14T05:43:43.279Z,27.25
2018-07-14T05:53:50.343Z,27.33
2018-07-14T06:04:02.102Z,27.27
2018-07-14T06:14:05.259Z,27.44
2018-07-14T06:24:11.695Z,27.89
2018-07-14T06:34:17.875Z,27.65
2018-07-14T06:44:28.566Z,27.21
2018-07-14T06:54:37.581Z,28.00
2018-07-14T07:04:48.296Z,26.92
2018-07-14T07:14:55.194Z,27.54
2018-07-14T07:25:00.215Z,28.27
2018-07-14T07:35:04.923Z,27.95
2018-07-14T07:45:39.802Z,27.12
2018-07-14T07:55:44.291Z,28.07
2018-07-14T08:05:48.318Z,27.82
2018-07-14T08:15:52.305Z,27.66
2018-07-14T08:25:59.707Z,28.53
2018-07-14T08:36:04.470Z,27.52
2018-07-14T08:46:10.322Z,27.57
2018-07-14T08:56:14.456Z,28.28
2018-07-14T09:06:19.583Z,28.43
2018-07-14T09:16:25.430Z,27.94
2018-07-14T09:26:29.537Z,28.49
2018-07-14T09:36:36.351Z,28.03
2018-07-14T09:46:42.301Z,28.15
2018-07-14T09:56:45.429Z,28.67
2018-07-14T10:06:49.659Z,28.57
2018-07-14T10:16:55.421Z,27.76
2018-07-14T10:27:00.595Z,27.99
2018-07-14T10:37:05.512Z,28.98
2018-07-14T10:47:10.524Z,29.27
2018-07-14T10:57:14.576Z,29.18
2018-07-14T11:07:20.858Z,29.89
2018-07-14T11:17:25.512Z,29.75
2018-07-14T11:27:30.014Z,29.67
2018-07-14T11:37:35.397Z,30.04
2018-07-14T11:47:38.457Z,30.28
2018-07-14T11:57:42.659Z,30.59
2018-07-14T12:07:50.582Z,30.45
2018-07-14T12:17:56.951Z,30.80
2018-07-14T12:28:01.663Z,30.48
2018-07-14T12:38:08.450Z,30.45
2018-07-14T12:48:11.470Z,30.72
2018-07-14T12:58:14.576Z,30.78
2018-07-14T13:08:29.709Z,30.75
2018-07-14T13:18:35.559Z,30.81
2018-07-14T13:28:39.658Z,31.11
2018-07-14T13:38:51.265Z,31.04
2018-07-14T13:48:53.127Z,31.26
2018-07-14T13:58:59.499Z,31.48
2018-07-14T14:09:04.627Z,31.45
2018-07-14T14:19:09.800Z,31.45
2018-07-14T14:29:13.669Z,31.38
2018-07-14T14:39:21.679Z,32.41
2018-07-14T14:49:25.598Z,32.70
2018-07-14T14:59:29.549Z,32.36
2018-07-14T15:09:34.705Z,32.33
2018-07-14T15:19:39.600Z,32.06
2018-07-14T15:29:43.894Z,32.34
2018-07-14T15:39:49.785Z,32.27
2018-07-14T15:49:54.587Z,32.50
2018-07-14T16:00:00.201Z,32.22
2018-07-14T16:10:07.566Z,31.93
2018-07-14T16:20:17.820Z,32.06
2018-07-14T16:30:21.082Z,32.22
2018-07-14T16:40:24.707Z,31.81
2018-07-14T16:50:27.723Z,31.99
2018-07-14T17:07:29.698Z,32.46
2018-07-14T17:17:43.758Z,32.01
2018-07-14T17:27:47.490Z,32.55
2018-07-14T17:37:51.766Z,32.57
2018-07-14T17:47:55.924Z,32.13
2018-07-14T17:58:06.742Z,32.46
2018-07-14T18:08:09.765Z,32.34
2018-07-14T18:18:12.950Z,32.43
2018-07-14T18:28:16.020Z,32.39
2018-07-14T18:38:19.126Z,32.31
2018-07-14T18:48:22.278Z,32.34
2018-07-14T18:58:25.448Z,32.07
2018-07-14T19:08:28.550Z,32.18
2018-07-14T19:18:31.530Z,32.19
2018-07-14T19:28:34.539Z,32.11
2018-07-14T19:38:37.574Z,31.97
2018-07-14T19:48:41.190Z,32.19
2018-07-14T19:58:44.288Z,32.20
2018-07-14T20:08:47.457Z,30.01
2018-07-14T20:18:51.212Z,29.75
2018-07-14T20:28:54.308Z,29.57
2018-07-14T20:38:57.496Z,29.41
2018-07-14T20:49:00.576Z,29.48
2018-07-14T20:59:03.685Z,29.47
2018-07-14T21:09:07.229Z,29.50
2018-07-14T21:19:10.441Z,29.23
2018-07-14T21:29:13.630Z,29.47
2018-07-14T21:39:16.818Z,29.14
2018-07-14T21:49:19.782Z,28.75
2018-07-14T21:59:22.927Z,29.11
2018-07-14T22:09:26.540Z,29.32
2018-07-14T22:19:29.626Z,29.32
2018-07-14T22:29:32.980Z,29.32
2018-07-14T22:39:37.120Z,29.28
2018-07-14T22:49:40.086Z,29.37
2018-07-14T22:59:43.376Z,29.27
2018-07-14T23:09:46.664Z,29.36
2018-07-14T23:19:49.660Z,29.32
2018-07-14T23:29:52.930Z,29.27
2018-07-14T23:39:55.978Z,28.82
2018-07-14T23:49:59.111Z,29.21
